Have a Safe July 4th! 

Flight Track Log - Related Links

Times and Time Zones

All times are in EDT time to prevent confusion due to time zone crossing. See the QTR46 flight status page for this flight to view local times or setup timezone preferences in your user account.

Time Position Orientation Groundspeed Altitude Reporting Facility
EDT Latitude Longitude Course Direction KTS MPH feet Rate Location/Type
Thu 10:36:48 AM 53.3580 -2.2660 61° Northeast 159 183 800  Level FlightAware ADS-B
Thu 10:37:18 AM 53.3700 -2.2350 57° Northeast 154 177 2,000 1,700 Climbing FlightAware ADS-B
Thu 10:37:48 AM 53.3820 -2.2010 59° Northeast 180 207 2,500 900 Climbing FlightAware ADS-B
Thu 10:37:58 AM 53.3870 -2.1900 53° Northeast 191 220 2,600 750 Climbing FlightAware ADS-B
Thu 10:38:28 AM 53.4070 -2.1520 49° Northeast 231 266 3,000 1,091 Climbing FlightAware ADS-B
Thu 10:38:53 AM 53.4250 -2.1130 52° Northeast 261 300 3,600 1,800 Climbing FlightAware ADS-B
Thu 10:39:08 AM 53.4360 -2.0880 54° Northeast 270 311 4,200 2,400 Climbing FlightAware ADS-B
Thu 10:39:38 AM 53.4580 -2.0400 52° Northeast 275 316 5,400 2,533 Climbing FlightAware ADS-B
Thu 10:39:53 AM 53.4690 -2.0100 58° Northeast 278 320 6,100 2,850 Climbing FlightAware ADS-B
Thu 10:40:18 AM 53.4780 -1.9590 73° East 280 322 7,300 2,727 Climbing FlightAware ADS-B
Thu 10:40:48 AM 53.4880 -1.8920 76° East 291 335 8,600 2,667 Climbing FlightAware ADS-B
Thu 10:41:03 AM 53.4930 -1.8610 75° East 293 337 9,300 2,182 Climbing FlightAware ADS-B
Thu 10:41:43 AM 53.5060 -1.7710 76° East 311 358 10,600 1,765 Climbing FlightAware ADS-B
Thu 10:42:28 AM 53.5240 -1.6580 75° East 346 398 11,800 2,250 Climbing FlightAware ADS-B
Thu 10:43:03 AM 53.5370 -1.5670 76° East 342 394 13,600 2,509 Climbing FlightAware ADS-B
Thu 10:43:23 AM 53.5310 -1.5110 100° East 338 389 14,100 2,000 Climbing FlightAware ADS-B
Thu 10:44:03 AM 53.5090 -1.4070 110° East 346 398 15,600 2,175 Climbing FlightAware ADS-B
Thu 10:44:43 AM 53.4870 -1.3020 109° East 359 413 17,000 1,835 Climbing FlightAware ADS-B
Thu 10:45:28 AM 53.4620 -1.1810 109° East 379 436 18,200 1,624 Climbing FlightAware ADS-B
Thu 10:46:08 AM 53.4390 -1.0700 109° East 393 452 19,300 1,694 Climbing FlightAware ADS-B
Thu 10:46:53 AM 53.4120 -0.9370 109° East 408 470 20,600 1,694 Climbing FlightAware ADS-B
Thu 10:47:33 AM 53.3859 -0.8077 109° East 421 484 21,700 1,800 Climbing FlightAware ADS-B
Thu 10:48:03 AM 53.3662 -0.7123 109° East 425 489 22,700 1,839 Climbing FlightAware ADS-B
Thu 10:48:35 AM 53.3451 -0.6123 109° East 429 494 23,600 1,714 Climbing FlightAware ADS-B
Thu 10:49:06 AM 53.3254 -0.5192 109° East 431 496 24,500 1,500 Climbing FlightAware ADS-B
Thu 10:49:43 AM 53.3030 -0.4110 109° East 439 505 25,300 1,375 Climbing FlightAware ADS-B
Thu 10:49:54 AM 53.2933 -0.3638 109° East 442 509 25,600 1,636 Climbing FlightAware ADS-B
Thu 10:50:27 AM 53.2710 -0.2570 109° East 445 512 26,500 1,477 Climbing FlightAware ADS-B
Thu 10:50:59 AM 53.2493 -0.1528 109° East 449 517 27,200 1,219 Climbing FlightAware ADS-B
Thu 10:51:31 AM 53.2252 -0.0481 111° Southeast 454 522 27,800 1,143 Climbing FlightAware ADS-B
Thu 10:52:02 AM 53.2024 0.0509 111° Southeast 458 527 28,400 1,180 Climbing FlightAware ADS-B
Thu 10:52:32 AM 53.1783 0.1546 111° Southeast 463 533 29,000 952 Climbing FlightAware ADS-B
Thu 10:53:05 AM 53.1533 0.2623 111° Southeast 470 541 29,400 818 Climbing FlightAware ADS-B
Thu 10:53:38 AM 53.1270 0.3750 111° Southeast 476 548 29,900 1,143 Climbing FlightAware ADS-B
Thu 10:54:08 AM 53.1027 0.4789 111° Southeast 475 547 30,600 1,254 Climbing FlightAware ADS-B
Thu 10:54:45 AM 53.0736 0.6022 111° Southeast 477 549 31,300 1,164 Climbing FlightAware ADS-B
Thu 10:55:15 AM 53.0502 0.7012 111° Southeast 476 548 31,900 1,200 Climbing FlightAware ADS-B
Thu 10:55:45 AM 53.0252 0.8064 112° Southeast 474 545 32,500 885 Climbing FlightAware ADS-B
Thu 10:56:16 AM 53.0001 0.9112 112° Southeast 478 550 32,800 566 Climbing FlightAware ADS-B
Thu 10:56:38 AM 52.9840 0.9882 109° East 481 554 33,000 308 Climbing FlightAware ADS-B
Thu 10:56:55 AM 52.9743 1.0475 105° East 484 557 33,000  Level FlightAware ADS-B
Thu 10:57:31 AM 52.9583 1.1788 101° East 487 560 33,000  Level FlightAware ADS-B
Thu 10:58:05 AM 52.9436 1.3033 101° East 487 560 33,000  Level FlightAware ADS-B
Thu 10:58:36 AM 52.9300 1.4184 101° East 488 562 33,000  Level FlightAware ADS-B
Thu 10:59:06 AM 52.9169 1.5292 101° East 489 563 33,000  Level FlightAware ADS-B
Thu 10:59:44 AM 52.9004 1.6679 101° East 491 565 33,000  Level FlightAware ADS-B
Thu 11:00:16 AM 52.8860 1.7863 101° East 491 565 33,000  Level FlightAware ADS-B
Thu 11:00:47 AM 52.8722 1.9000 101° East 493 567 33,000  Level FlightAware ADS-B
Thu 11:01:26 AM 52.8546 2.0430 101° East 492 566 33,000  Level FlightAware ADS-B
Thu 11:01:58 AM 52.8398 2.1616 102° East 491 565 33,000  Level FlightAware ADS-B
Thu 11:02:29 AM 52.8254 2.2765 102° East 492 566 33,000  Level FlightAware ADS-B
Thu 11:03:43 AM 52.7940 2.5470 101° East 496 571 33,000  Level FlightAware ADS-B
Thu 11:04:23 AM 52.7770 2.6940 101° East 497 572 33,000  Level FlightAware ADS-B
Thu 11:05:03 AM 52.7600 2.8430 101° East 498 573 33,000  Level FlightAware ADS-B
Thu 11:05:48 AM 52.7400 3.0060 101° East 498 573 33,000  Level FlightAware ADS-B
Thu 11:06:28 AM 52.7220 3.1550 101° East 498 573 33,000  Level FlightAware ADS-B
Thu 11:07:08 AM 52.7030 3.3080 102° East 499 574 33,000  Level FlightAware ADS-B
Thu 11:07:53 AM 52.6830 3.4680 102° East 502 578 33,000  Level FlightAware ADS-B
Thu 11:08:33 AM 52.6640 3.6240 101° East 506 582 33,000  Level FlightAware ADS-B
Thu 11:09:18 AM 52.6430 3.7880 102° East 508 585 33,000  Level FlightAware ADS-B
Thu 11:09:58 AM 52.6230 3.9430 102° East 512 589 33,000  Level FlightAware ADS-B
Thu 11:10:43 AM 52.6000 4.1180 102° East 515 593 33,000  Level FlightAware ADS-B
Thu 11:11:23 AM 52.5800 4.2700 102° East 517 595 33,000  Level FlightAware ADS-B
Thu 11:12:03 AM 52.5600 4.4220 102° East 519 597 33,000  Level FlightAware ADS-B
Thu 11:12:48 AM 52.5370 4.5970 102° East 520 598 33,000  Level FlightAware ADS-B
Thu 11:13:28 AM 52.5160 4.7490 103° East 520 598 33,000  Level FlightAware ADS-B
Thu 11:14:08 AM 52.4950 4.9030 103° East 521 600 33,000  Level FlightAware ADS-B
Thu 11:14:53 AM 52.4700 5.0820 103° East 524 603 33,000  Level FlightAware ADS-B
Thu 11:15:33 AM 52.4490 5.2300 103° East 523 602 33,000  Level FlightAware ADS-B
Thu 11:16:13 AM 52.4280 5.3780 103° East 523 602 33,000  Level FlightAware ADS-B
Thu 11:16:58 AM 52.4030 5.5530 103° East 523 602 33,000  Level FlightAware ADS-B
Thu 11:17:38 AM 52.3810 5.7100 103° East 523 602 33,000  Level FlightAware ADS-B
Thu 11:18:23 AM 52.3560 5.8800 103° East 524 603 33,000  Level FlightAware ADS-B
Thu 11:19:03 AM 52.3320 6.0390 104° East 524 603 33,000  Level FlightAware ADS-B
Thu 11:19:43 AM 52.3100 6.1870 104° East 525 604 33,000  Level FlightAware ADS-B
Thu 11:20:28 AM 52.2840 6.3600 104° East 525 604 33,000  Level FlightAware ADS-B
Thu 11:21:08 AM 52.2600 6.5150 104° East 524 603 33,000  Level FlightAware ADS-B
Thu 11:21:53 AM 52.2360 6.6770 104° East 523 602 33,000  Level FlightAware ADS-B
Thu 11:22:33 AM 52.2110 6.8340 105° East 522 601 33,000  Level FlightAware ADS-B
Thu 11:23:13 AM 52.1870 6.9890 104° East 521 600 33,000  Level FlightAware ADS-B
Thu 11:23:58 AM 52.1600 7.1560 105° East 519 597 33,000  Level FlightAware ADS-B
Thu 11:24:38 AM 52.1340 7.3200 104° East 515 593 33,000  Level FlightAware ADS-B
Thu 11:25:23 AM 52.1090 7.4790 104° East 513 590 33,000  Level FlightAware ADS-B
Thu 11:26:03 AM 52.0850 7.6220 105° East 514 592 33,000  Level FlightAware ADS-B
Thu 11:26:43 AM 52.0580 7.7870 105° East 515 593 33,000  Level FlightAware ADS-B
Thu 11:27:28 AM 52.0300 7.9560 105° East 517 595 33,000  Level FlightAware ADS-B
Thu 11:28:38 AM 51.9890 8.2010 105° East 521 600 33,000  Level FlightAware ADS-B
Thu 11:29:13 AM 51.9650 8.3430 105° East 523 602 33,000  Level FlightAware ADS-B
Thu 11:30:03 AM 51.9320 8.5320 106° East 527 606 33,000  Level FlightAware ADS-B
Thu 11:31:23 AM 51.8820 8.8210 106° East 530 610 33,000  Level FlightAware ADS-B
Thu 11:32:08 AM 51.8490 9.0100 106° East 531 611 33,000  Level FlightAware ADS-B
Thu 11:32:48 AM 51.8230 9.1550 106° East 530 610 33,000  Level FlightAware ADS-B
Thu 11:33:28 AM 51.7960 9.3060 106° East 530 610 33,000  Level FlightAware ADS-B
Thu 11:34:13 AM 51.7660 9.4740 106° East 532 612 33,000  Level FlightAware ADS-B
Thu 11:34:53 AM 51.7370 9.6290 107° East 531 611 33,000  Level FlightAware ADS-B
Thu 11:35:38 AM 51.7060 9.7970 107° East 530 610 33,000  Level FlightAware ADS-B
Thu 11:36:18 AM 51.6770 9.9530 107° East 532 612 33,000  Level FlightAware ADS-B
Thu 11:37:03 AM 51.6460 10.1170 107° East 532 612 33,000  Level FlightAware ADS-B
Thu 11:37:43 AM 51.6170 10.2720 107° East 532 612 33,000  Level FlightAware ADS-B
Thu 11:38:23 AM 51.5870 10.4290 107° East 533 613 33,000  Level FlightAware ADS-B
Thu 11:39:08 AM 51.5550 10.5990 107° East 531 611 33,000  Level FlightAware ADS-B
Thu 11:39:48 AM 51.5260 10.7490 107° East 528 608 33,000  Level FlightAware ADS-B
Thu 11:40:33 AM 51.4940 10.9120 107° East 524 603 33,000  Level FlightAware ADS-B
Thu 11:41:13 AM 51.4650 11.0580 108° East 526 605 33,000  Level FlightAware ADS-B
Thu 11:41:58 AM 51.4300 11.2340 108° East 527 606 33,000  Level FlightAware ADS-B
Thu 11:42:38 AM 51.4020 11.3760 107° East 528 608 33,000  Level FlightAware ADS-B
Thu 11:43:23 AM 51.3640 11.5630 108° East 524 603 33,000  Level FlightAware ADS-B
Thu 11:44:03 AM 51.3330 11.7130 108° East 524 603 33,000  Level FlightAware ADS-B
Thu 11:44:43 AM 51.3040 11.8550 108° East 525 604 33,000  Level FlightAware ADS-B
Thu 11:45:28 AM 51.2710 12.0170 108° East 524 603 33,000  Level FlightAware ADS-B
Thu 11:46:08 AM 51.2390 12.1680 109° East 527 606 33,000  Level FlightAware ADS-B
Thu 11:46:53 AM 51.2060 12.3250 108° East 528 608 33,000  Level FlightAware ADS-B
Thu 11:47:33 AM 51.1760 12.4680 108° East 529 609 33,000  Level FlightAware ADS-B
Thu 11:48:13 AM 51.1450 12.6140 109° East 527 606 33,000  Level FlightAware ADS-B
Thu 11:48:58 AM 51.1080 12.7850 109° East 526 605 33,000  Level FlightAware ADS-B
Thu 11:49:38 AM 51.0770 12.9300 109° East 526 605 33,000  Level FlightAware ADS-B
Thu 11:50:23 AM 51.0400 13.0960 109° East 527 606 33,000  Level FlightAware ADS-B
Thu 11:51:03 AM 51.0090 13.2400 109° East 528 608 33,000  Level FlightAware ADS-B
Thu 11:51:43 AM 50.9750 13.3930 109° East 528 608 33,000  Level FlightAware ADS-B
Thu 11:52:28 AM 50.9380 13.5570 110° East 530 610 33,000  Level FlightAware ADS-B
Thu 11:53:08 AM 50.9060 13.7020 109° East 529 609 33,000  Level FlightAware ADS-B
Thu 11:53:53 AM 50.8660 13.8660 111° Southeast 529 609 33,000  Level FlightAware ADS-B
Thu 11:54:33 AM 50.8180 13.9990 120° Southeast 529 609 33,000  Level FlightAware ADS-B
Thu 11:55:13 AM 50.7690 14.1300 121° Southeast 528 608 33,000  Level FlightAware ADS-B
Thu 11:55:58 AM 50.7120 14.2810 121° Southeast 528 608 33,000  Level FlightAware ADS-B
Thu 11:56:38 AM 50.6630 14.4090 121° Southeast 529 609 33,000  Level FlightAware ADS-B
Thu 11:57:23 AM 50.6060 14.5600 121° Southeast 528 608 33,000  Level FlightAware ADS-B
Thu 11:58:03 AM 50.5550 14.6900 122° Southeast 528 608 33,000  Level FlightAware ADS-B
Thu 11:58:43 AM 50.5040 14.8220 121° Southeast 528 608 33,000  Level FlightAware ADS-B
Thu 11:59:28 AM 50.4480 14.9620 122° Southeast 530 610 33,000  Level FlightAware ADS-B
Thu 12:00:08 PM 50.3960 15.0950 121° Southeast 529 609 33,000  Level FlightAware ADS-B
Thu 12:00:48 PM 50.3420 15.2300 122° Southeast 528 608 33,000  Level FlightAware ADS-B
Thu 12:01:33 PM 50.2880 15.3650 122° Southeast 529 609 33,000  Level FlightAware ADS-B
Thu 12:02:13 PM 50.2330 15.5020 122° Southeast 532 612 33,000  Level FlightAware ADS-B
Thu 12:02:53 PM 50.1800 15.6320 122° Southeast 534 615 33,000  Level FlightAware ADS-B
Thu 12:03:38 PM 50.1270 15.7630 122° Southeast 534 615 33,000  Level FlightAware ADS-B
Thu 12:04:18 PM 50.0700 15.9020 123° Southeast 533 613 33,000 212 Level FlightAware ADS-B
Thu 12:05:03 PM 50.0110 16.0460 122° Southeast 534 615 33,300 847 Climbing FlightAware ADS-B
Thu 12:05:43 PM 49.9580 16.1760 122° Southeast 532 612 34,200 1,271 Climbing FlightAware ADS-B
Thu 12:06:28 PM 49.8940 16.3290 123° Southeast 528 608 35,100 1,129 Climbing FlightAware ADS-B
Thu 12:07:08 PM 49.8420 16.4540 123° Southeast 520 598 35,800 1,050 Climbing FlightAware ADS-B
Thu 12:07:48 PM 49.7920 16.5730 123° Southeast 513 590 36,500 847 Climbing FlightAware ADS-B
Thu 12:08:33 PM 49.7330 16.7130 123° Southeast 512 589 37,000 353 Climbing FlightAware ADS-B
Thu 12:09:13 PM 49.6810 16.8360 123° Southeast 518 596 37,000  Level FlightAware ADS-B
Thu 12:09:58 PM 49.6200 16.9780 124° Southeast 515 593 37,000  Level FlightAware ADS-B
Thu 12:10:38 PM 49.5680 17.1000 123° Southeast 516 594 37,000  Level FlightAware ADS-B
Thu 12:11:18 PM 49.5160 17.2230 123° Southeast 517 595 37,000  Level FlightAware ADS-B
Thu 12:12:03 PM 49.4570 17.3580 124° Southeast 519 597 37,000  Level FlightAware ADS-B
Thu 12:12:43 PM 49.4040 17.4810 123° Southeast 523 602 37,000  Level FlightAware ADS-B
Thu 12:13:13 PM 49.3640 17.5730 124° Southeast 524 603 37,000  Level FlightAware ADS-B
Thu 12:13:53 PM 49.3100 17.6960 124° Southeast 522 601 37,000  Level FlightAware ADS-B
Thu 12:14:33 PM 49.2600 17.8100 124° Southeast 521 600 37,000  Level FlightAware ADS-B
Thu 12:15:18 PM 49.1960 17.9540 124° Southeast 523 602 37,000  Level FlightAware ADS-B
Thu 12:15:58 PM 49.1470 18.0830 120° Southeast 524 603 37,000  Level FlightAware ADS-B
Thu 12:16:43 PM 49.0930 18.2320 119° Southeast 525 604 37,000  Level FlightAware ADS-B
Thu 12:17:23 PM 49.0460 18.3600 119° Southeast 527 606 37,000  Level FlightAware ADS-B
Thu 12:18:03 PM 49.0010 18.4820 119° Southeast 528 608 37,000  Level FlightAware ADS-B
Thu 12:18:48 PM 48.9450 18.6340 119° Southeast 526 605 37,000  Level FlightAware ADS-B
Thu 12:19:28 PM 48.8990 18.7600 119° Southeast 523 602 37,000  Level FlightAware ADS-B
Thu 12:20:13 PM 48.8450 18.9030 120° Southeast 523 602 37,000  Level FlightAware ADS-B
Thu 12:20:53 PM 48.7980 19.0300 119° Southeast 521 600 37,000  Level FlightAware ADS-B
Thu 12:21:38 PM 48.7440 19.1740 120° Southeast 522 601 37,000  Level FlightAware ADS-B
Thu 12:22:18 PM 48.6960 19.2990 120° Southeast 517 595 37,000  Level FlightAware ADS-B
Thu 12:23:03 PM 48.6410 19.4440 120° Southeast 514 592 37,000  Level FlightAware ADS-B
Thu 12:23:43 PM 48.5950 19.5660 120° Southeast 511 588 37,000  Level FlightAware ADS-B
Thu 12:24:23 PM 48.5480 19.6870 120° Southeast 511 588 37,000  Level FlightAware ADS-B
Thu 12:25:08 PM 48.4960 19.8210 120° Southeast 509 586 37,000  Level FlightAware ADS-B
Thu 12:25:48 PM 48.4460 19.9510 120° Southeast 508 585 37,000  Level FlightAware ADS-B
Thu 12:26:28 PM 48.4000 20.0690 120° Southeast 505 581 37,000  Level FlightAware ADS-B
Thu 12:27:13 PM 48.3480 20.2030 120° Southeast 505 581 37,000  Level FlightAware ADS-B
Thu 12:27:53 PM 48.2980 20.3300 121° Southeast 503 579 37,000  Level FlightAware ADS-B
Thu 12:28:38 PM 48.2450 20.4630 121° Southeast 507 583 37,000  Level FlightAware ADS-B
Thu 12:29:18 PM 48.1980 20.5830 120° Southeast 512 589 37,000  Level FlightAware ADS-B
Thu 12:29:58 PM 48.1480 20.7070 121° Southeast 514 592 37,000  Level FlightAware ADS-B
Thu 12:30:43 PM 48.0950 20.8400 121° Southeast 515 593 37,000  Level FlightAware ADS-B
Thu 12:31:23 PM 48.0420 20.9700 121° Southeast 514 592 37,000  Level FlightAware ADS-B
Thu 12:32:03 PM 47.9940 21.0900 121° Southeast 512 589 37,000  Level FlightAware ADS-B
Thu 12:32:43 PM 47.9470 21.2070 121° Southeast 510 587 37,000  Level FlightAware ADS-B
Thu 12:33:28 PM 47.8890 21.3490 121° Southeast 513 590 37,000  Level FlightAware ADS-B
Thu 12:34:13 PM 47.8340 21.4830 121° Southeast 512 589 37,000  Level FlightAware ADS-B
Thu 12:34:53 PM 47.7860 21.5990 122° Southeast 509 586 37,000  Level FlightAware ADS-B
Thu 12:35:33 PM 47.7390 21.7120 122° Southeast 510 587 37,000  Level FlightAware ADS-B
Thu 12:36:18 PM 47.6810 21.8590 120° Southeast 508 585 37,000  Level FlightAware ADS-B
Thu 12:36:58 PM 47.6360 21.9760 120° Southeast 506 582 37,000  Level FlightAware ADS-B
Thu 12:37:43 PM 47.5840 22.1130 119° Southeast 511 588 37,000  Level FlightAware ADS-B
Thu 12:38:23 PM 47.5400 22.2270 120° Southeast 506 582 37,000  Level FlightAware ADS-B
Thu 12:39:03 PM 47.4930 22.3470 120° Southeast 505 581 37,000  Level FlightAware ADS-B
Thu 12:39:43 PM 47.4460 22.4690 120° Southeast 512 589 37,000  Level FlightAware ADS-B
Thu 12:40:28 PM 47.3930 22.6040 120° Southeast 510 587 37,000  Level FlightAware ADS-B
Thu 12:41:23 PM 47.3310 22.7590 121° Southeast 511 588 37,000  Level FlightAware ADS-B
Thu 12:41:58 PM 47.2850 22.8780 120° Southeast 512 589 37,000  Level FlightAware ADS-B
Thu 12:42:48 PM 47.2260 23.0240 121° Southeast 510 587 37,000  Level FlightAware ADS-B
Thu 12:43:28 PM 47.1770 23.1470 120° Southeast 508 585 37,000  Level FlightAware ADS-B
Thu 12:44:13 PM 47.1220 23.2840 121° Southeast 511 588 37,000  Level FlightAware ADS-B
Thu 12:44:53 PM 47.0730 23.4070 120° Southeast 510 587 37,000  Level FlightAware ADS-B
Thu 12:45:23 PM 47.0390 23.4890 121° Southeast 510 587 37,000  Level FlightAware ADS-B
Thu 12:46:08 PM 46.9870 23.6170 121° Southeast 509 586 37,000  Level FlightAware ADS-B
Thu 12:46:48 PM 46.9340 23.7470 121° Southeast 509 586 37,000  Level FlightAware ADS-B
Thu 12:47:33 PM 46.8790 23.8800 121° Southeast 507 583 37,000  Level FlightAware ADS-B
Thu 12:48:08 PM 46.8390 23.9790 121° Southeast 507 583 37,000  Level FlightAware ADS-B
Thu 12:48:58 PM 46.7800 24.1200 121° Southeast 507 583 37,000  Level FlightAware ADS-B
Thu 12:49:38 PM 46.7300 24.2410 121° Southeast 507 583 37,000  Level FlightAware ADS-B
Thu 12:50:18 PM 46.6810 24.3590 121° Southeast 508 585 37,000  Level FlightAware ADS-B
Thu 12:51:03 PM 46.6280 24.4840 122° Southeast 509 586 37,000  Level FlightAware ADS-B
Thu 12:51:43 PM 46.5830 24.5910 121° Southeast 507 583 37,000  Level FlightAware ADS-B
Thu 12:52:28 PM 46.5250 24.7290 121° Southeast 506 582 37,000  Level FlightAware ADS-B
Thu 12:53:03 PM 46.4800 24.8330 122° Southeast 504 580 37,000  Level FlightAware ADS-B
Thu 12:53:48 PM 46.4280 24.9560 121° Southeast 503 579 37,000  Level FlightAware ADS-B
Thu 12:54:33 PM 46.3740 25.0820 122° Southeast 501 577 37,000  Level FlightAware ADS-B
Thu 12:55:28 PM 46.3070 25.2360 122° Southeast 500 575 37,000  Level FlightAware ADS-B
Thu 12:55:58 PM 46.2670 25.3290 122° Southeast 499 574 37,000  Level FlightAware ADS-B
Thu 12:56:53 PM 46.1990 25.4850 122° Southeast 499 574 37,000  Level FlightAware ADS-B
Thu 12:57:23 PM 46.1610 25.5730 122° Southeast 500 575 37,000  Level FlightAware ADS-B
Thu 12:58:18 PM 46.0930 25.7260 123° Southeast 502 578 37,000  Level FlightAware ADS-B
Thu 12:58:58 PM 46.0430 25.8410 122° Southeast 503 579 37,000  Level FlightAware ADS-B
Thu 12:59:33 PM 45.9990 25.9410 122° Southeast 504 580 37,000  Level FlightAware ADS-B
Thu 01:00:13 PM 45.9490 26.0530 123° Southeast 507 583 37,000  Level FlightAware ADS-B
Thu 01:01:03 PM 45.8930 26.1790 123° Southeast 506 582 37,000  Level FlightAware ADS-B
Thu 01:01:43 PM 45.8370 26.3030 123° Southeast 505 581 37,000  Level FlightAware ADS-B
Thu 01:02:28 PM 45.7790 26.4320 123° Southeast 506 582 37,000  Level FlightAware ADS-B
Thu 01:03:08 PM 45.7290 26.5430 123° Southeast 507 583 37,000  Level FlightAware ADS-B
Thu 01:03:48 PM 45.6760 26.6590 123° Southeast 506 582 37,000  Level FlightAware ADS-B
Thu 01:04:33 PM 45.6200 26.7820 123° Southeast 505 581 37,000  Level FlightAware ADS-B
Thu 01:05:18 PM 45.5660 26.9010 123° Southeast 504 580 37,000  Level FlightAware ADS-B
Thu 01:05:58 PM 45.5150 27.0100 124° Southeast 505 581 37,000  Level FlightAware ADS-B
Thu 01:06:38 PM 45.4620 27.1260 123° Southeast 506 582 37,000  Level FlightAware ADS-B
Thu 01:07:18 PM 45.4130 27.2320 123° Southeast 507 583 37,000  Level FlightAware ADS-B
Thu 01:08:03 PM 45.3500 27.3660 124° Southeast 508 585 37,000  Level FlightAware ADS-B
Thu 01:08:43 PM 45.3020 27.4690 124° Southeast 510 587 37,000  Level FlightAware ADS-B
Thu 01:09:28 PM 45.2440 27.6060 121° Southeast 508 585 37,000  Level FlightAware ADS-B
Thu 01:10:08 PM 45.2060 27.7180 116° Southeast 510 587 37,000  Level FlightAware ADS-B
Thu 01:10:53 PM 45.1580 27.8610 115° Southeast 512 589 37,000  Level FlightAware ADS-B
Thu 01:11:33 PM 45.1200 27.9710 116° Southeast 512 589 37,000  Level FlightAware ADS-B
Thu 01:12:38 PM 45.0550 28.1630 116° Southeast 509 586 37,000  Level FlightAware ADS-B
Thu 01:13:23 PM 45.0080 28.2970 116° Southeast 506 582 37,000  Level FlightAware ADS-B
Thu 01:14:08 PM 44.9570 28.4430 116° Southeast 505 581 37,000  Level FlightAware ADS-B
Thu 01:14:43 PM 44.9260 28.5330 116° Southeast 504 580 37,000  Level FlightAware ADS-B
Thu 01:15:28 PM 44.8750 28.6790 116° Southeast 501 577 37,000  Level FlightAware ADS-B
Thu 01:16:13 PM 44.8290 28.8110 116° Southeast 503 579 37,000  Level FlightAware ADS-B
Thu 01:16:48 PM 44.7910 28.9160 117° Southeast 504 580 37,000  Level FlightAware ADS-B
Thu 01:17:38 PM 44.7410 29.0580 116° Southeast 501 577 37,000  Level FlightAware ADS-B
Thu 01:18:18 PM 44.7010 29.1700 117° Southeast 502 578 37,000  Level FlightAware ADS-B
Thu 01:18:58 PM 44.6580 29.2920 116° Southeast 500 575 37,000  Level FlightAware ADS-B
Thu 01:19:33 PM 44.6220 29.3900 117° Southeast 500 575 37,000  Level FlightAware ADS-B
Thu 01:20:23 PM 44.5680 29.5410 117° Southeast 500 575 37,000  Level FlightAware ADS-B
Thu 01:21:08 PM 44.5210 29.6700 117° Southeast 497 572 37,000  Level FlightAware ADS-B
Thu 01:21:48 PM 44.4800 29.7820 117° Southeast 496 571 37,000  Level FlightAware ADS-B
Thu 01:22:28 PM 44.4420 29.8860 117° Southeast 495 570 37,000  Level FlightAware ADS-B
Thu 01:23:08 PM 44.3980 30.0060 117° Southeast 494 568 37,000  Level FlightAware ADS-B
Thu 01:23:53 PM 44.3480 30.1400 118° Southeast 496 571 37,000  Level FlightAware ADS-B
Thu 01:24:38 PM 44.3050 30.2560 117° Southeast 496 571 37,000  Level FlightAware ADS-B
Thu 01:25:18 PM 44.2600 30.3790 117° Southeast 495 570 37,000  Level FlightAware ADS-B
Thu 01:26:03 PM 44.2230 30.4770 118° Southeast 496 571 37,000  Level FlightAware ADS-B
Thu 01:26:43 PM 44.1690 30.6210 118° Southeast 495 570 37,000  Level FlightAware ADS-B
Thu 01:27:23 PM 44.1230 30.7430 118° Southeast 494 568 37,000  Level FlightAware ADS-B
Thu 01:28:08 PM 44.0760 30.8660 118° Southeast 497 572 37,000  Level FlightAware ADS-B
Thu 01:28:48 PM 44.0320 30.9830 118° Southeast 497 572 37,000  Level FlightAware ADS-B
Thu 01:29:28 PM 43.9900 31.0920 118° Southeast 496 571 37,000  Level FlightAware ADS-B
Thu 01:30:13 PM 43.9410 31.2200 118° Southeast 494 568 37,000  Level FlightAware ADS-B
Thu 01:30:53 PM 43.8980 31.3320 118° Southeast 493 567 37,000  Level FlightAware ADS-B
Thu 01:31:38 PM 43.8490 31.4570 118° Southeast 492 566 37,000  Level FlightAware ADS-B
Thu 01:32:18 PM 43.8060 31.5690 118° Southeast 492 566 37,000  Level FlightAware ADS-B
Thu 01:32:58 PM 43.7630 31.6790 118° Southeast 491 565 37,000  Level FlightAware ADS-B
Thu 01:33:43 PM 43.7190 31.7920 118° Southeast 491 565 37,000  Level FlightAware ADS-B
Thu 01:34:23 PM 43.6710 31.9120 119° Southeast 489 563 37,000  Level FlightAware ADS-B
Thu 01:35:08 PM 43.6230 32.0360 118° Southeast 487 560 37,000  Level FlightAware ADS-B
Thu 01:35:48 PM 43.5790 32.1460 119° Southeast 487 560 37,000  Level FlightAware ADS-B
Thu 01:36:33 PM 43.5300 32.2690 119° Southeast 487 560 37,000  Level FlightAware ADS-B
Thu 01:37:13 PM 43.4860 32.3770 119° Southeast 488 562 37,000  Level FlightAware ADS-B
Thu 01:37:53 PM 43.4450 32.4820 118° Southeast 489 563 37,000  Level FlightAware ADS-B
Thu 01:38:38 PM 43.3940 32.6060 119° Southeast 490 564 37,000  Level FlightAware ADS-B
Thu 01:39:18 PM 43.3510 32.7140 119° Southeast 492 566 37,000  Level FlightAware ADS-B
Thu 01:40:03 PM 43.3000 32.8400 119° Southeast 493 567 37,000  Level FlightAware ADS-B
Thu 01:40:43 PM 43.2550 32.9500 119° Southeast 493 567 37,000  Level FlightAware ADS-B
Thu 01:41:23 PM 43.2110 33.0570 119° Southeast 492 566 37,000  Level FlightAware ADS-B
Thu 01:42:08 PM 43.1600 33.1810 119° Southeast 492 566 37,000  Level FlightAware ADS-B
Thu 01:42:48 PM 43.1160 33.2880 119° Southeast 493 567 37,000  Level FlightAware ADS-B
Thu 01:43:33 PM 43.0650 33.4100 120° Southeast 491 565 37,000  Level FlightAware ADS-B
Thu 01:44:13 PM 43.0200 33.5190 119° Southeast 489 563 37,000  Level FlightAware ADS-B
Thu 01:44:53 PM 42.9750 33.6260 120° Southeast 489 563 37,000  Level FlightAware ADS-B
Thu 01:45:38 PM 42.9260 33.7430 120° Southeast 491 565 37,000  Level FlightAware ADS-B
Thu 01:46:13 PM 42.8850 33.8420 119° Southeast 492 566 37,000  Level FlightAware ADS-B
Thu 01:46:58 PM 42.8330 33.9630 120° Southeast 492 566 37,000  Level FlightAware ADS-B
Thu 01:47:43 PM 42.7790 34.0750 123° Southeast 490 564 37,000  Level FlightAware ADS-B
Thu 01:48:33 PM 42.7030 34.1900 132° Southeast 485 558 37,000  Level FlightAware ADS-B
Thu 01:49:33 PM 42.6090 34.3150 136° Southeast 485 558 37,000  Level FlightAware ADS-B
Thu 01:50:58 PM 42.5470 34.3990 135° Southeast 485 558 37,000  Level FlightAware ADS-B
Thu 01:51:38 PM 42.4930 34.4720 135° Southeast 485 558 37,000  Level FlightAware ADS-B
Thu 01:52:18 PM 42.4390 34.5450 135° Southeast 485 558 37,000  Level FlightAware ADS-B
Thu 01:52:58 PM 42.3850 34.6180 135° Southeast 485 558 37,000  Level FlightAware ADS-B
Thu 01:53:48 PM 42.3170 34.7100 135° Southeast 485 558 37,000  Level FlightAware ADS-B
Thu 01:54:28 PM 42.2630 34.7820 135° Southeast 485 558 37,000  Level FlightAware ADS-B
Thu 01:55:08 PM 42.2090 34.8550 135° Southeast 485 558 37,000  Level FlightAware ADS-B
Thu 01:55:48 PM 42.1550 34.9280 135° Southeast 485 558 37,000  Level FlightAware ADS-B
Thu 01:56:28 PM 42.1020 35.0010 134° Southeast 485 558 37,000  Level FlightAware ADS-B
Thu 01:57:18 PM 42.0340 35.0920 135° Southeast 485 558 37,000  Level FlightAware ADS-B
Thu 01:57:58 PM 41.9800 35.1640 135° Southeast 485 558 37,000  Level FlightAware ADS-B
Thu 01:58:38 PM 41.9260 35.2370 135° Southeast 485 558 37,000  Level FlightAware ADS-B
Thu 01:59:18 PM 41.8720 35.3090 135° Southeast 485 558 37,000  Level FlightAware ADS-B
Thu 01:59:58 PM 41.8180 35.3820 135° Southeast 485 558 37,000  Level FlightAware ADS-B
Thu 02:02:00 PM 41.6443 35.6062 136° Southeast  Level Estimated
Thu 02:03:00 PM 41.5587 35.7160 136° Southeast  Level Estimated
Thu 02:04:00 PM 41.4729 35.8255 136° Southeast  Level Estimated
Thu 02:05:00 PM 41.3871 35.9347 136° Southeast  Level Estimated
Thu 02:06:00 PM 41.3012 36.0437 136° Southeast  Level Estimated
Thu 02:07:00 PM 41.2152 36.1524 136° Southeast  Level Estimated
Thu 02:08:00 PM 41.1291 36.2607 137° Southeast  Level Estimated
Thu 02:09:00 PM 41.0429 36.3688 137° Southeast  Level Estimated
Thu 02:10:00 PM 40.9565 36.4766 137° Southeast  Level Estimated
Thu 02:11:00 PM 40.8701 36.5841 137° Southeast  Level Estimated
Thu 02:12:00 PM 40.7836 36.6914 137° Southeast  Level Estimated
Thu 02:13:00 PM 40.6970 36.7983 137° Southeast  Level Estimated
Thu 02:14:00 PM 40.6102 36.9050 137° Southeast  Level Estimated
Thu 02:15:00 PM 40.5234 37.0114 137° Southeast  Level Estimated
Thu 02:16:00 PM 40.4365 37.1175 137° Southeast  Level Estimated
Thu 02:17:00 PM 40.3495 37.2234 137° Southeast  Level Estimated
Thu 02:18:00 PM 40.2624 37.3290 137° Southeast  Level Estimated
Thu 02:19:00 PM 40.1752 37.4343 137° Southeast  Level Estimated
Thu 02:20:00 PM 40.0879 37.5393 137° Southeast  Level Estimated
Thu 02:21:00 PM 40.0005 37.6441 137° Southeast  Level Estimated
Thu 02:22:00 PM 39.9130 37.7486 137° Southeast  Level Estimated
Thu 02:23:00 PM 39.8254 37.8529 138° Southeast  Level Estimated
Thu 02:24:00 PM 39.7377 37.9568 138° Southeast  Level Estimated
Thu 02:25:00 PM 39.6500 38.0606 138° Southeast  Level Estimated
Thu 02:26:00 PM 39.5621 38.1640 138° Southeast  Level Estimated
Thu 02:27:00 PM 39.4742 38.2672 138° Southeast  Level Estimated
Thu 02:28:00 PM 39.3861 38.3701 138° Southeast  Level Estimated
Thu 02:29:00 PM 39.2980 38.4728 138° Southeast  Level Estimated
Thu 02:30:00 PM 39.2098 38.5752 138° Southeast  Level Estimated
Thu 02:31:00 PM 39.1214 38.6773 138° Southeast  Level Estimated
Thu 02:32:00 PM 39.0331 38.7792 138° Southeast  Level Estimated
Thu 02:33:00 PM 38.9446 38.8809 138° Southeast  Level Estimated
Thu 02:33:28 PM 39.0670 40.6240 138° Southeast 486 559 37,000  Level FlightAware ADS-B
Thu 02:34:00 PM 38.8560 38.9822 138° Southeast  Level Estimated
Thu 02:34:08 PM 39.0200 40.7030 127° Southeast 485 558 37,000  Level FlightAware ADS-B
Thu 02:34:53 PM 38.9530 40.8130 128° Southeast 484 557 37,000  Level FlightAware ADS-B
Thu 02:35:28 PM 38.9120 40.8830 127° Southeast 484 557 37,000  Level FlightAware ADS-B
Thu 02:36:28 PM 38.8320 41.0160 128° Southeast 487 560 37,000  Level FlightAware ADS-B
Thu 02:37:08 PM 38.7860 41.0950 127° Southeast 487 560 37,000  Level FlightAware ADS-B
Thu 02:37:48 PM 38.7400 41.1730 127° Southeast 487 560 37,000  Level FlightAware ADS-B
Thu 02:38:28 PM 38.6930 41.2520 127° Southeast 487 560 37,000  Level FlightAware ADS-B
Thu 02:39:18 PM 38.6360 41.3490 127° Southeast 487 560 37,000  Level FlightAware ADS-B
Thu 02:39:58 PM 38.5900 41.4280 127° Southeast 487 560 37,000  Level FlightAware ADS-B
Thu 02:40:38 PM 38.4750 41.6110 129° Southeast 488 562 37,000  Level FlightAware ADS-B
Thu 02:41:33 PM 38.4020 41.7380 126° Southeast 485 558 37,000  Level FlightAware ADS-B
Thu 02:42:08 PM 38.3590 41.8120 127° Southeast 484 557 37,000  Level FlightAware ADS-B
Thu 02:42:38 PM 38.3260 41.8690 126° Southeast 483 556 37,000  Level FlightAware ADS-B
Thu 02:43:23 PM 38.2580 41.9850 127° Southeast 481 554 37,000  Level FlightAware ADS-B
Thu 02:44:13 PM 38.1860 42.1070 127° Southeast 481 554 37,000  Level FlightAware ADS-B
Thu 02:44:53 PM 38.1340 42.1970 126° Southeast 479 551 37,000  Level FlightAware ADS-B
Thu 02:45:38 PM 38.0740 42.2970 127° Southeast 478 550 37,000  Level FlightAware ADS-B
Thu 02:46:18 PM 38.0220 42.3850 127° Southeast 478 550 37,000  Level FlightAware ADS-B
Thu 02:46:58 PM 37.9690 42.4760 126° Southeast 476 548 37,000  Level FlightAware ADS-B
Thu 02:47:43 PM 37.9110 42.5730 127° Southeast 475 547 37,000  Level FlightAware ADS-B
Thu 02:48:23 PM 37.8520 42.6630 130° Southeast 468 539 37,000  Level FlightAware ADS-B
Thu 02:49:03 PM 37.7880 42.7370 138° Southeast 460 529 37,000  Level FlightAware ADS-B
Thu 02:49:48 PM 37.7180 42.8150 139° Southeast 453 521 37,000  Level FlightAware ADS-B
Thu 02:50:28 PM 37.6570 42.8820 139° Southeast 437 503 37,000  Level FlightAware ADS-B
Thu 02:51:08 PM 37.5960 42.9490 139° Southeast 438 504 37,000  Level FlightAware ADS-B
Thu 02:51:53 PM 37.5250 43.0270 139° Southeast 440 506 37,000  Level FlightAware ADS-B
Thu 02:52:33 PM 37.4620 43.0950 139° Southeast 444 511 37,000  Level FlightAware ADS-B
Thu 02:53:18 PM 37.3950 43.1670 140° Southeast 439 505 37,000  Level FlightAware ADS-B
Thu 02:53:58 PM 37.3280 43.2250 145° Southeast 427 491 37,000  Level FlightAware ADS-B
Thu 02:54:43 PM 37.2470 43.2740 154° Southeast 420 483 37,000  Level FlightAware ADS-B
Thu 02:55:23 PM 37.1790 43.3130 155° Southeast 418 481 37,000  Level FlightAware ADS-B
Thu 02:56:03 PM 37.1070 43.3540 156° South 417 480 37,000  Level FlightAware ADS-B
Thu 02:56:48 PM 37.0270 43.3990 156° South 429 494 37,000  Level FlightAware ADS-B
Thu 02:57:28 PM 36.9540 43.4400 156° South 431 496 37,000  Level FlightAware ADS-B
Thu 02:58:13 PM 36.8710 43.4860 156° South 432 497 37,000  Level FlightAware ADS-B
Thu 02:58:53 PM 36.7970 43.5280 156° South 432 497 37,000  Level FlightAware ADS-B
Thu 02:59:33 PM 36.7250 43.5680 156° South 434 499 37,000  Level FlightAware ADS-B
Thu 03:00:18 PM 36.6410 43.6110 158° South 436 502 37,000  Level FlightAware ADS-B
Thu 03:00:58 PM 36.5670 43.6490 158° South 437 503 37,000  Level FlightAware ADS-B
Thu 03:01:38 PM 36.4930 43.6880 157° South 436 502 37,000  Level FlightAware ADS-B
Thu 03:02:23 PM 36.4060 43.7330 157° South 435 501 37,000  Level FlightAware ADS-B
Thu 03:03:03 PM 36.3310 43.7720 157° South 436 502 37,000  Level FlightAware ADS-B
Thu 03:03:48 PM 36.2510 43.8140 157° South 436 502 37,000  Level FlightAware ADS-B
Thu 03:04:28 PM 36.1760 43.8530 157° South 437 503 37,000  Level FlightAware ADS-B
Thu 03:05:08 PM 36.1000 43.8930 157° South 437 503 37,000  Level FlightAware ADS-B
Thu 03:05:53 PM 36.0160 43.9370 157° South 435 501 37,000  Level FlightAware ADS-B
Thu 03:06:33 PM 35.9410 43.9760 157° South 434 499 37,000  Level FlightAware ADS-B
Thu 03:07:18 PM 35.8580 44.0190 157° South 434 499 37,000  Level FlightAware ADS-B
Thu 03:07:58 PM 35.7850 44.0570 157° South 432 497 37,000  Level FlightAware ADS-B
Thu 03:08:38 PM 35.7110 44.0960 157° South 431 496 37,000  Level FlightAware ADS-B
Thu 03:09:23 PM 35.6270 44.1390 157° South 429 494 37,000  Level FlightAware ADS-B
Thu 03:10:03 PM 35.5530 44.1770 157° South 428 493 37,000  Level FlightAware ADS-B
Thu 03:10:48 PM 35.4740 44.2190 157° South 429 494 37,000  Level FlightAware ADS-B
Thu 03:11:28 PM 35.4000 44.2570 157° South 432 497 37,000  Level FlightAware ADS-B
Thu 03:12:13 PM 35.3140 44.3010 157° South 437 503 37,000  Level FlightAware ADS-B
Thu 03:12:53 PM 35.2400 44.3390 157° South 447 514 37,000  Level FlightAware ADS-B
Thu 03:13:33 PM 35.1690 44.3880 151° Southeast 455 524 37,000  Level FlightAware ADS-B
Thu 03:14:18 PM 35.0850 44.4470 150° Southeast 457 526 37,000  Level FlightAware ADS-B
Thu 03:14:58 PM 35.0120 44.4990 150° Southeast 455 524 37,000  Level FlightAware ADS-B
Thu 03:15:43 PM 34.9320 44.5550 150° Southeast 450 518 37,000  Level FlightAware ADS-B
Thu 03:16:23 PM 34.8570 44.6070 150° Southeast 450 518 37,000  Level FlightAware ADS-B
Thu 03:17:03 PM 34.7830 44.6590 150° Southeast 449 517 37,000  Level FlightAware ADS-B
Thu 03:17:48 PM 34.7050 44.7130 150° Southeast 448 516 37,000  Level FlightAware ADS-B
Thu 03:18:28 PM 34.6310 44.7650 150° Southeast 449 517 37,000  Level FlightAware ADS-B
Thu 03:19:13 PM 34.5490 44.8220 150° Southeast 449 517 37,000  Level FlightAware ADS-B
Thu 03:19:58 PM 34.4700 44.8770 150° Southeast 448 516 37,000  Level FlightAware ADS-B
Thu 03:20:38 PM 34.3960 44.9280 150° Southeast 451 519 37,000  Level FlightAware ADS-B
Thu 03:21:18 PM 34.3240 44.9780 150° Southeast 451 519 37,000  Level FlightAware ADS-B
Thu 03:22:03 PM 34.2430 45.0340 150° Southeast 454 522 37,000  Level FlightAware ADS-B
Thu 03:22:43 PM 34.1680 45.0860 150° Southeast 456 525 37,000  Level FlightAware ADS-B
Thu 03:23:18 PM 34.1090 45.1260 151° Southeast 455 524 37,000  Level FlightAware ADS-B
Thu 03:24:08 PM 34.0200 45.1870 150° Southeast 453 521 37,000  Level FlightAware ADS-B
Thu 03:24:43 PM 33.9600 45.2290 150° Southeast 453 521 37,000  Level FlightAware ADS-B
Thu 03:25:33 PM 33.8620 45.2960 150° Southeast 454 522 37,000  Level FlightAware ADS-B
Thu 03:26:13 PM 33.7940 45.3430 150° Southeast 454 522 37,000  Level FlightAware ADS-B
Thu 03:27:08 PM 33.6910 45.4120 151° Southeast 452 520 37,000  Level FlightAware ADS-B
Thu 03:27:53 PM 33.6090 45.4680 150° Southeast 450 518 37,000  Level FlightAware ADS-B
Thu 03:28:33 PM 33.5300 45.5220 150° Southeast 451 519 37,000  Level FlightAware ADS-B
Thu 03:29:13 PM 33.4620 45.5670 151° Southeast 452 520 37,000  Level FlightAware ADS-B
Thu 03:29:53 PM 33.3860 45.6190 150° Southeast 454 522 37,000  Level FlightAware ADS-B
Thu 03:30:38 PM 33.3130 45.6690 150° Southeast 454 522 37,000  Level FlightAware ADS-B
Thu 03:31:18 PM 33.2510 45.7120 150° Southeast 454 522 37,000  Level FlightAware ADS-B
Thu 03:31:58 PM 33.1890 45.7550 150° Southeast 454 522 37,000  Level FlightAware ADS-B
Thu 03:32:38 PM 33.1270 45.7970 150° Southeast 454 522 37,000  Level FlightAware ADS-B
Thu 03:33:23 PM 32.9970 45.8800 152° Southeast 459 528 37,000  Level FlightAware ADS-B
Thu 03:34:08 PM 32.9240 45.9300 150° Southeast 459 528 37,000  Level FlightAware ADS-B
Thu 03:34:48 PM 32.8610 45.9730 150° Southeast 459 528 37,000  Level FlightAware ADS-B
Thu 03:35:28 PM 32.7990 46.0160 150° Southeast 459 528 37,000  Level FlightAware ADS-B
Thu 03:36:08 PM 32.7360 46.0590 150° Southeast 459 528 37,000  Level FlightAware ADS-B
Thu 03:36:58 PM 32.6580 46.1130 150° Southeast 459 528 37,000  Level FlightAware ADS-B
Thu 03:37:38 PM 32.5950 46.1560 150° Southeast 459 528 37,000  Level FlightAware ADS-B
Thu 03:38:18 PM 32.5330 46.1990 150° Southeast 459 528 37,000  Level FlightAware ADS-B
Thu 03:38:58 PM 32.4700 46.2410 151° Southeast 459 528 37,000  Level FlightAware ADS-B
Thu 03:39:38 PM 32.4080 46.2840 150° Southeast 459 528 37,000  Level FlightAware ADS-B
Thu 03:40:28 PM 32.3300 46.3380 150° Southeast 459 528 37,000  Level FlightAware ADS-B
Thu 03:41:08 PM 32.2670 46.3800 151° Southeast 459 528 37,000  Level FlightAware ADS-B
Thu 03:41:48 PM 32.2050 46.4230 150° Southeast 459 528 37,000  Level FlightAware ADS-B
Thu 03:42:28 PM 32.1420 46.4660 150° Southeast 459 528 37,000  Level FlightAware ADS-B
Thu 03:43:08 PM 32.0800 46.5080 150° Southeast 459 528 37,000  Level FlightAware ADS-B
Thu 03:45:00 PM 31.8970 46.6550 146° Southeast  Level Estimated
Thu 03:46:00 PM 31.7989 46.7335 146° Southeast  Level Estimated
Thu 03:47:00 PM 31.7007 46.8118 146° Southeast  Level Estimated
Thu 03:48:00 PM 31.6025 46.8900 146° Southeast  Level Estimated
Thu 03:48:38 PM 31.3340 46.9790 146° Southeast 492 566 37,000  Level FlightAware ADS-B
Thu 03:49:18 PM 31.2500 47.0600 140° Southeast 493 567 37,000  Level FlightAware ADS-B
Thu 03:49:58 PM 31.1790 47.1410 136° Southeast 500 575 37,000  Level FlightAware ADS-B
Thu 03:50:43 PM 31.1190 47.2060 137° Southeast 500 575 37,000  Level FlightAware ADS-B
Thu 03:51:38 PM 31.0130 47.3190 138° Southeast 499 574 37,000  Level FlightAware ADS-B
Thu 03:52:23 PM 30.9210 47.4150 138° Southeast 504 580 37,000  Level FlightAware ADS-B
Thu 03:52:58 PM 30.8580 47.4800 138° Southeast 510 587 37,000  Level FlightAware ADS-B
Thu 03:53:43 PM 30.8060 47.5350 138° Southeast 510 587 37,000  Level FlightAware ADS-B
Thu 03:54:28 PM 30.7370 47.6060 139° Southeast 511 588 37,000  Level FlightAware ADS-B
Thu 03:55:08 PM 30.6660 47.6810 138° Southeast 512 589 37,000  Level FlightAware ADS-B
Thu 03:55:53 PM 30.5700 47.7810 138° Southeast 514 592 37,000  Level FlightAware ADS-B
Thu 03:56:23 PM 30.5040 47.8490 138° Southeast 514 592 37,000  Level FlightAware ADS-B
Thu 03:57:13 PM 30.4070 47.9490 138° Southeast 514 592 37,000  Level FlightAware ADS-B
Thu 03:58:13 PM 30.3030 48.0560 138° Southeast 513 590 37,000  Level FlightAware ADS-B
Thu 03:58:48 PM 30.2400 48.1120 142° Southeast 508 585 37,000  Level FlightAware ADS-B
Thu 04:00:03 PM 30.0940 48.2060 151° Southeast 505 581 37,000  Level FlightAware ADS-B
Thu 04:00:48 PM 30.0120 48.2630 149° Southeast 505 581 37,000  Level FlightAware ADS-B
Thu 04:01:28 PM 29.9030 48.3360 150° Southeast 506 582 37,000  Level FlightAware ADS-B
Thu 04:02:08 PM 29.8100 48.3990 150° Southeast 508 585 37,000  Level FlightAware ADS-B
Thu 04:02:43 PM 29.7420 48.4440 150° Southeast 508 585 37,000  Level FlightAware ADS-B
Thu 04:03:48 PM 29.5740 48.5570 150° Southeast 510 587 37,000  Level FlightAware ADS-B
Thu 04:04:28 PM 29.4960 48.6090 150° Southeast 512 589 37,000  Level FlightAware ADS-B
Thu 04:05:13 PM 29.4090 48.6660 150° Southeast 512 589 37,000  Level FlightAware ADS-B
Thu 04:05:53 PM 29.3110 48.7310 150° Southeast 512 589 37,000  Level FlightAware ADS-B
Thu 04:06:28 PM 29.2450 48.7750 150° Southeast 512 589 37,000  Level FlightAware ADS-B
Thu 04:07:18 PM 29.1420 48.8430 150° Southeast 513 590 37,000  Level FlightAware ADS-B
Thu 04:07:53 PM 29.0710 48.8900 150° Southeast 511 588 37,000  Level FlightAware ADS-B
Thu 04:08:43 PM 28.9630 48.9610 150° Southeast 512 589 37,000  Level FlightAware ADS-B
Thu 04:09:18 PM 28.8980 49.0040 150° Southeast 513 590 37,000  Level FlightAware ADS-B
Thu 04:10:03 PM 28.8170 49.0570 150° Southeast 513 590 37,000  Level FlightAware ADS-B
Thu 04:10:43 PM 28.7470 49.1030 150° Southeast 513 590 37,000  Level FlightAware ADS-B
Thu 04:11:28 PM 28.6660 49.1560 150° Southeast 512 589 37,000  Level FlightAware ADS-B
Thu 04:12:13 PM 28.5610 49.2240 150° Southeast 511 588 37,000  Level FlightAware ADS-B
Thu 04:12:53 PM 28.4850 49.2740 150° Southeast 510 587 37,000  Level FlightAware ADS-B
Thu 04:13:43 PM 28.3920 49.3340 150° Southeast 510 587 37,000  Level FlightAware ADS-B
Thu 04:14:23 PM 28.3230 49.3800 150° Southeast 510 587 37,000  Level FlightAware ADS-B
Thu 04:15:13 PM 28.2090 49.4530 151° Southeast 512 589 37,000  Level FlightAware ADS-B
Thu 04:16:03 PM 28.0970 49.5270 150° Southeast 515 593 37,000  Level FlightAware ADS-B
Thu 04:16:53 PM 27.9940 49.6090 145° Southeast 518 596 37,000  Level FlightAware ADS-B
Thu 04:17:33 PM 27.9190 49.6710 144° Southeast 517 595 37,000  Level FlightAware ADS-B
Thu 04:18:23 PM 27.8290 49.7440 144° Southeast 517 595 37,000  Level FlightAware ADS-B
Thu 04:19:13 PM 27.7430 49.8140 144° Southeast 518 596 37,000  Level FlightAware ADS-B
Thu 04:20:08 PM 27.6580 49.8840 144° Southeast 518 596 37,000  Level FlightAware ADS-B
Thu 04:20:48 PM 27.5920 49.9380 144° Southeast 518 596 37,000  Level FlightAware ADS-B
Thu 04:21:28 PM 27.5260 49.9920 144° Southeast 518 596 37,000  Level FlightAware ADS-B
Thu 04:22:08 PM 27.4600 50.0460 144° Southeast 518 596 37,000  Level FlightAware ADS-B
Thu 04:22:48 PM 27.3940 50.1000 144° Southeast 518 596 37,000  Level FlightAware ADS-B
Thu 04:23:38 PM 27.3110 50.1680 144° Southeast 518 596 37,000  Level FlightAware ADS-B
Thu 04:24:18 PM 27.2450 50.2210 144° Southeast 518 596 37,000  Level FlightAware ADS-B
Thu 04:24:58 PM 27.1800 50.2750 144° Southeast 518 596 37,000  Level FlightAware ADS-B
Thu 04:25:38 PM 27.1140 50.3290 144° Southeast 518 596 37,000  Level FlightAware ADS-B
Thu 04:26:18 PM 27.0480 50.3830 144° Southeast 518 596 37,000  Level FlightAware ADS-B
Thu 04:27:08 PM 26.9650 50.4500 144° Southeast 518 596 37,000  Level FlightAware ADS-B
Thu 04:27:48 PM 26.8990 50.5040 144° Southeast 518 596 37,000 -2,016 Level FlightAware ADS-B
Thu 04:28:28 PM 26.6240 50.6650 152° Southeast 33,000 -2,965 Descending FlightAware ADS-B
Thu 04:29:13 PM 26.5270 50.7230 152° Southeast 487 560 32,800 -918 Descending FlightAware ADS-B
Thu 04:29:53 PM 26.4630 50.7930 136° Southeast 511 588 31,700 -1,575 Descending FlightAware ADS-B
Thu 04:30:33 PM 26.4150 50.8850 120° Southeast 494 568 30,700 -1,412 Descending FlightAware ADS-B
Thu 04:31:18 PM 26.3630 50.9830 121° Southeast 481 554 29,700 -1,482 Descending FlightAware ADS-B
Thu 04:31:58 PM 26.3180 51.0700 120° Southeast 465 535 28,600 -1,553 Descending FlightAware ADS-B
Thu 04:32:43 PM 26.2670 51.1580 123° Southeast 444 511 27,500 -1,624 Descending FlightAware ADS-B
Thu 04:33:23 PM 26.2030 51.2170 140° Southeast 434 499 26,300 -1,765 Descending FlightAware ADS-B
Thu 04:34:08 PM 26.1340 51.2770 142° Southeast 428 493 25,000 -1,765 Descending FlightAware ADS-B
Thu 04:34:48 PM 26.0710 51.3320 142° Southeast 420 483 23,800 -1,650 Descending FlightAware ADS-B
Thu 04:35:28 PM 26.0090 51.3830 144° Southeast 407 468 22,800 -2,047 Descending FlightAware ADS-B
Thu 04:36:13 PM 25.9420 51.4390 143° Southeast 401 461 20,900 -2,400 Descending FlightAware ADS-B
Thu 04:36:53 PM 25.8820 51.4880 144° Southeast 379 436 19,400 -2,400 Descending FlightAware ADS-B
Thu 04:37:38 PM 25.8200 51.5410 142° Southeast 362 417 17,500 -2,612 Descending FlightAware ADS-B
Thu 04:38:18 PM 25.7670 51.5840 144° Southeast 350 403 15,700 -2,550 Descending FlightAware ADS-B
Thu 04:38:58 PM 25.7150 51.6270 143° Southeast 345 397 14,100 -1,553 Descending FlightAware ADS-B
Thu 04:39:43 PM 25.6580 51.6750 143° Southeast 328 377 13,500 -847 Descending FlightAware ADS-B
Thu 04:40:23 PM 25.6120 51.7130 143° Southeast 318 366 12,900 -1,200 Descending FlightAware ADS-B
Thu 04:41:03 PM 25.5620 51.7540 144° Southeast 310 357 11,900 -1,341 Descending FlightAware ADS-B
Thu 04:41:48 PM 25.5110 51.7970 143° Southeast 305 351 11,000 -1,114 Descending FlightAware ADS-B
Thu 04:42:13 PM 25.4800 51.8180 149° Southeast 289 333 10,600 -750 Descending FlightAware ADS-B
Thu 04:42:28 PM 25.4600 51.8210 172° South 276 318 10,500 -900 Descending FlightAware ADS-B
Thu 04:43:13 PM 25.4030 51.8210 180° South 261 300 9,700 -1,286 Descending FlightAware ADS-B
Thu 04:43:38 PM 25.3710 51.8210 180° South 257 296 9,000 -1,650 Descending FlightAware ADS-B
Thu 04:43:53 PM 25.3540 51.8200 183° South 261 300 8,600 -1,650 Descending FlightAware ADS-B
Thu 04:44:18 PM 25.3230 51.8200 180° South 258 297 7,900 -1,500 Descending FlightAware ADS-B
Thu 04:44:33 PM 25.3050 51.8190 183° South 256 295 7,600 -1,067 Descending FlightAware ADS-B
Thu 04:45:03 PM 25.2710 51.8190 180° South 255 293 7,100 -1,100 Descending FlightAware ADS-B
Thu 04:45:33 PM 25.2340 51.8180 181° South 246 283 6,500 -1,200 Descending FlightAware ADS-B
Thu 04:45:58 PM 25.2040 51.8180 180° South 244 281 6,000 -1,091 Descending FlightAware ADS-B
Thu 04:46:28 PM 25.1700 51.8170 182° South 240 276 5,500 -982 Descending FlightAware ADS-B
Thu 04:46:53 PM 25.1400 51.8160 182° South 244 281 5,100 -873 Descending FlightAware ADS-B
Thu 04:47:23 PM 25.1130 51.8150 182° South 242 278 4,700 -720 Descending FlightAware ADS-B
Thu 04:47:43 PM 25.0880 51.8070 196° South 241 277 4,500 -267 Descending FlightAware ADS-B
Thu 04:48:08 PM 25.0640 51.8060 182° South 241 277 4,500 -600 Level FlightAware ADS-B
Thu 04:49:13 PM 25.0380 51.7300 249° West 187 215 3,600 -927 Descending FlightAware ADS-B
Thu 04:49:58 PM 25.0460 51.6880 282° West 192 221 2,800 -600 Descending FlightAware ADS-B
Thu 04:50:33 PM 25.0610 51.6610 302° West 192 221 2,800 -360 Level FlightAware ADS-B
Thu 04:51:38 PM 25.1140 51.6300 332° Northwest 191 220 2,200 -442 Descending FlightAware ADS-B
Thu 04:52:08 PM 25.1370 51.6200 339° North 162 186 2,100 -436 Descending FlightAware ADS-B
Thu 04:52:33 PM 25.1570 51.6110 338° Northwest 155 178 1,800 -360 Descending FlightAware ADS-B
Thu 04:52:58 PM 25.1720 51.6040 337° Northwest 155 178 1,800 -600 Level FlightAware ADS-B
Thu 04:53:33 PM 25.1920 51.5960 340° North 128 147 1,200 -880 Descending FlightAware ADS-B
Thu 04:54:13 PM 25.2140 51.5860 338° Northwest 125 144 700 -540 Descending FlightAware ADS-B
Thu 04:55:13 PM 25.2490 51.5710 339° North 123 142 300 -400 Descending FlightAware ADS-B
Thu 04:57:00 PM 25.2611 51.5651 336° Northwest  Level Estimated
Thu 04:58:00 PM 25.2611 51.5651 324° Northwest  Level Estimated
Thu 04:59:00 PM 25.2611 51.5651 324° Northwest  Level Estimated
Thu 05:00:00 PM 25.2611 51.5651 324° Northwest  Level Estimated
Thu 05:01:00 PM 25.2611 51.5651 324° Northwest  Level Estimated
Thu 05:02:00 PM 25.2611 51.5651 324° Northwest  Level Estimated
Thu 05:03:00 PM 25.2611 51.5651 324° Northwest  Level Estimated
Thu 05:04:00 PM 25.2611 51.5651 324° Northwest  Level Estimated
Thu 05:05:00 PM 25.2611 51.5651 324° Northwest  Level Estimated
Thu 05:06:00 PM 25.2611 51.5651 324° Northwest  Level Estimated
Thu 05:07:00 PM 25.2611 51.5651 324° Northwest  Level Estimated
Thu 05:08:00 PM 25.2611 51.5651 324° Northwest  Level Estimated
Thu 05:09:00 PM 25.2611 51.5651 324° Northwest  Level Estimated
Thu 05:10:00 PM 25.2611 51.5651 324° Northwest  Level Estimated
Thu 05:11:00 PM 25.2611 51.5651 324° Northwest  Level Estimated
Thu 05:12:00 PM 25.2611 51.5651 324° Northwest  Level Estimated
Thu 05:13:00 PM 25.2611 51.5651 324° Northwest  Level Estimated
Thu 05:14:00 PM 25.2611 51.5651 324° Northwest  Level Estimated
Thu 05:15:00 PM 25.2611 51.5651 324° Northwest  Level Estimated
Thu 05:16:00 PM 25.2611 51.5651 324° Northwest  Level Estimated
Thu 05:17:00 PM 25.2611 51.5651 324° Northwest  Level Estimated
Thu 05:18:00 PM 25.2611 51.5651 324° Northwest  Level Estimated
Thu 05:19:00 PM 25.2611 51.5651 324° Northwest  Level Estimated
Thu 05:20:00 PM 25.2611 51.5651 324° Northwest  Level Estimated
Thu 05:21:00 PM 25.2611 51.5651 324° Northwest  Level Estimated
Thu 05:22:00 PM 25.2611 51.5651 324° Northwest  Level Estimated
Thu 05:23:00 PM 25.2611 51.5651 324° Northwest  Level Estimated
Thu 05:24:00 PM 25.2611 51.5651 324° Northwest  Level Estimated
Thu 05:25:00 PM 25.2611 51.5651 324° Northwest  Level Estimated
Thu 05:26:00 PM 25.2611 51.5651 324° Northwest  Level Estimated
Thu 05:27:00 PM 25.2611 51.5651 324° Northwest  Level Estimated
Thu 05:28:00 PM 25.2611 51.5651 324° Northwest  Level Estimated
Thu 05:29:00 PM 25.2611 51.5651 324° Northwest  Level Estimated
Thu 05:30:00 PM 25.2611 51.5651 324° Northwest  Level Estimated
Thu 05:31:00 PM 25.2611 51.5651 324° Northwest  Level Estimated
Thu 05:32:00 PM 25.2611 51.5651 324° Northwest  Level Estimated
Thu 05:33:00 PM 25.2611 51.5651 324° Northwest  Level Estimated
Thu 05:34:00 PM 25.2611 51.5651 324° Northwest  Level Estimated
Thu 05:35:00 PM 25.2611 51.5651 324° Northwest  Level Estimated
Thu 05:36:00 PM 25.2611 51.5651 324° Northwest  Level Estimated
Thu 05:37:00 PM 25.2611 51.5651 324° Northwest  Level Estimated
Thu 05:38:00 PM 25.2611 51.5651 324° Northwest  Level Estimated
Thu 05:39:00 PM 25.2611 51.5651 324° Northwest  Level Estimated
Thu 05:40:00 PM 25.2611 51.5651 324° Northwest  Level Estimated
Thu 05:41:00 PM 25.2611 51.5651 324° Northwest  Level Estimated
Thu 05:42:00 PM 25.2611 51.5651 324° Northwest  Level Estimated

Login

Don't have an account? Register now (free) for customized features, flight alerts, and more!